CWE weather

Cairo West Airport
El Cairo, Giza Governorate, Egypt

Public forecast

Using degrees Celsius for public forecast. Weather courtesy of forecast.io.

Closest aviation weather report (METAR) to Cairo West Airport

Closest report is Cairo International Airport, 25.5 nm (47.2 km) E. Retrieved 2020/02/19 16:00 UTC (26 minutes ago):

HECA 191600Z 27008KT 9999 SCT025 SCT030 15/08 Q1018 NOSIG

Closest aviation forecast (TAF) to Cairo West Airport

Closest forecast is Cairo International Airport, 25.5 nm (47.2 km) E. Retrieved 2020/02/19 12:40 UTC (4 hours ago):

TAF HECA 191100Z 1912/2018 27011KT 6000 SCT025 SCT070 TEMPO 1912/1918 4000 RA BKN020 TEMPO 2000/2007 VRB03KT 3000 BR PROB40 2002/2006 1000